Time;durP1;ratioP1;P1;durP2;ratioP2;P2;SDS_P1;SDS_P2;PMS_P1;PMS_P2;Temp;Humidity;BMP_temperature;BMP_pressure;BME280_temperature;BME280_humidity;BME280_pressure;Samples;Min_cycle;Max_cycle;Signal;HPM_P1;HPM_P2
2023/05/10 00:01:33;;;;;;;0.10;0.10;;;;;;;;;;4897129;29;20512;-88
2023/05/10 00:03:58;;;;;;;0.10;0.10;;;;;;;;;;4889099;29;20031;-87
2023/05/10 00:06:23;;;;;;;0.10;0.10;;;;;;;;;;4904078;29;20044;-86
2023/05/10 00:08:49;;;;;;;0.10;0.10;;;;;;;;;;4900342;29;20072;-86
2023/05/10 00:11:14;;;;;;;0.10;0.10;;;;;;;;;;4914737;29;20036;-86
2023/05/10 00:13:40;;;;;;;0.10;0.10;;;;;;;;;;4913846;29;20033;-86
2023/05/10 00:16:05;;;;;;;0.10;0.10;;;;;;;;;;4898568;29;20027;-87
2023/05/10 00:18:31;;;;;;;0.10;0.10;;;;;;;;;;4905483;29;20088;-88
2023/05/10 00:20:56;;;;;;;0.10;0.10;;;;;;;;;;4889712;29;20033;-87
2023/05/10 00:23:21;;;;;;;0.10;0.10;;;;;;;;;;4910571;29;20088;-86
2023/05/10 00:25:47;;;;;;;0.10;0.10;;;;;;;;;;4902362;29;20033;-86
2023/05/10 00:28:12;;;;;;;0.10;0.10;;;;;;;;;;4901502;29;20032;-89
2023/05/10 00:30:37;;;;;;;0.10;0.10;;;;;;;;;;4909636;29;20433;-88
2023/05/10 00:33:03;;;;;;;0.10;0.10;;;;;;;;;;4890488;29;20036;-85
2023/05/10 00:35:28;;;;;;;0.10;0.10;;;;;;;;;;4892882;29;20032;-87
2023/05/10 00:37:54;;;;;;;0.10;0.10;;;;;;;;;;4908258;29;20029;-86
2023/05/10 00:40:20;;;;;;;0.10;0.10;;;;;;;;;;4890519;29;20071;-86
2023/05/10 00:42:46;;;;;;;0.10;0.10;;;;;;;;;;4923877;29;20036;-86
2023/05/10 00:45:11;;;;;;;0.10;0.10;;;;;;;;;;4885948;29;20590;-86
2023/05/10 00:47:37;;;;;;;0.00;0.00;;;;;;;;;;4910863;29;20402;-85
2023/05/10 00:50:02;;;;;;;0.10;0.10;;;;;;;;;;4911754;29;20510;-86
2023/05/10 00:52:29;;;;;;;0.13;0.13;;;;;;;;;;4915233;29;20037;-86
2023/05/10 00:54:54;;;;;;;0.10;0.10;;;;;;;;;;4893479;29;20028;-90
2023/05/10 00:57:21;;;;;;;0.10;0.10;;;;;;;;;;4891725;29;20731;-87
2023/05/10 00:59:50;;;;;;;0.10;0.10;;;;;;;;;;4910421;29;20020;-88
2023/05/10 01:02:15;;;;;;;0.10;0.10;;;;;;;;;;4891809;29;20044;-87
2023/05/10 01:04:41;;;;;;;0.10;0.10;;;;;;;;;;4912111;29;20032;-87
2023/05/10 01:07:06;;;;;;;0.10;0.10;;;;;;;;;;4909314;29;20095;-87
2023/05/10 01:09:35;;;;;;;0.20;0.20;;;;;;;;;;4891960;29;20108;-88
2023/05/10 01:12:01;;;;;;;0.10;0.10;;;;;;;;;;4896503;29;20028;-88
2023/05/10 01:14:27;;;;;;;0.10;0.10;;;;;;;;;;4908116;29;20056;-86
2023/05/10 01:16:53;;;;;;;0.10;0.10;;;;;;;;;;4912947;29;20048;-86
2023/05/10 01:19:23;;;;;;;0.10;0.10;;;;;;;;;;4899350;29;20033;-86
2023/05/10 01:22:26;;;;;;;0.10;0.10;;;;;;;;;;4889023;29;20037;-87
2023/05/10 01:25:33;;;;;;;0.10;0.10;;;;;;;;;;4907808;29;20029;-86
2023/05/10 01:28:38;;;;;;;0.10;0.10;;;;;;;;;;4912422;29;20055;-85
2023/05/10 01:31:28;;;;;;;0.10;0.10;;;;;;;;;;4911352;29;20031;-85
2023/05/10 01:34:08;;;;;;;0.10;0.10;;;;;;;;;;4905422;29;20028;-85
2023/05/10 01:37:02;;;;;;;0.10;0.10;;;;;;;;;;4899224;29;20068;-86
2023/05/10 01:39:32;;;;;;;0.10;0.10;;;;;;;;;;4913394;29;20024;-86
2023/05/10 01:42:07;;;;;;;0.10;0.10;;;;;;;;;;4913556;29;20057;-85
2023/05/10 01:44:38;;;;;;;0.10;0.10;;;;;;;;;;4894637;29;20028;-86
2023/05/10 01:47:12;;;;;;;0.10;0.10;;;;;;;;;;4895839;29;20044;-86
2023/05/10 01:49:50;;;;;;;0.10;0.10;;;;;;;;;;4914843;29;20038;-85
2023/05/10 01:52:19;;;;;;;0.10;0.10;;;;;;;;;;4909812;29;20047;-86
2023/05/10 01:54:58;;;;;;;0.10;0.10;;;;;;;;;;4907398;29;20032;-87
2023/05/10 01:57:27;;;;;;;0.10;0.10;;;;;;;;;;4912412;29;20088;-85
2023/05/10 02:00:05;;;;;;;0.10;0.10;;;;;;;;;;4909720;29;20048;-85
2023/05/10 02:02:42;;;;;;;0.10;0.10;;;;;;;;;;4900552;29;20619;-85
2023/05/10 02:05:08;;;;;;;0.20;0.20;;;;;;;;;;4913522;29;20072;-86
2023/05/10 02:07:35;;;;;;;0.10;0.10;;;;;;;;;;4913719;29;20048;-85
2023/05/10 02:10:04;;;;;;;0.10;0.10;;;;;;;;;;4906826;29;20027;-86
2023/05/10 02:12:31;;;;;;;0.10;0.10;;;;;;;;;;4912635;29;20031;-87
2023/05/10 02:14:59;;;;;;;0.10;0.10;;;;;;;;;;4918957;29;20032;-86
2023/05/10 02:17:25;;;;;;;0.10;0.10;;;;;;;;;;4900656;29;20060;-86
2023/05/10 02:19:53;;;;;;;0.10;0.10;;;;;;;;;;4886666;29;20028;-85
2023/05/10 02:22:19;;;;;;;0.10;0.10;;;;;;;;;;4911083;29;20033;-86
2023/05/10 02:24:46;;;;;;;0.15;0.15;;;;;;;;;;4890890;29;20474;-85
2023/05/10 02:27:13;;;;;;;0.15;0.15;;;;;;;;;;4914921;29;20035;-85
2023/05/10 02:29:39;;;;;;;0.10;0.10;;;;;;;;;;4916608;29;20115;-86
2023/05/10 02:32:05;;;;;;;0.10;0.10;;;;;;;;;;4906737;29;20065;-86
2023/05/10 02:34:32;;;;;;;0.10;0.10;;;;;;;;;;4908256;29;20028;-86
2023/05/10 02:36:58;;;;;;;0.10;0.10;;;;;;;;;;4912783;29;20131;-86
2023/05/10 02:39:24;;;;;;;0.10;0.10;;;;;;;;;;4911147;29;20051;-85
2023/05/10 02:41:52;;;;;;;0.10;0.10;;;;;;;;;;4918576;29;20036;-85
2023/05/10 02:44:20;;;;;;;0.20;0.20;;;;;;;;;;4909043;29;20033;-85
2023/05/10 02:46:46;;;;;;;0.10;0.10;;;;;;;;;;4907697;29;20035;-85
2023/05/10 02:49:12;;;;;;;0.10;0.10;;;;;;;;;;4917393;29;20016;-85
2023/05/10 02:51:42;;;;;;;0.10;0.10;;;;;;;;;;4919627;29;20046;-86
2023/05/10 02:54:15;;;;;;;0.17;0.17;;;;;;;;;;4914604;29;20047;-85
2023/05/10 02:56:46;;;;;;;0.10;0.10;;;;;;;;;;4912396;29;20043;-84
2023/05/10 02:59:12;;;;;;;0.10;0.10;;;;;;;;;;4907542;29;20035;-84
2023/05/10 03:01:37;;;;;;;0.10;0.10;;;;;;;;;;4905539;29;20041;-85
2023/05/10 03:04:03;;;;;;;0.10;0.10;;;;;;;;;;4896468;29;20033;-85
2023/05/10 03:06:28;;;;;;;0.20;0.20;;;;;;;;;;4891617;29;20029;-85
2023/05/10 03:08:54;;;;;;;0.10;0.10;;;;;;;;;;4918014;29;20032;-85
2023/05/10 03:11:39;;;;;;;0.15;0.15;;;;;;;;;;4916395;29;20407;-85
2023/05/10 03:14:21;;;;;;;0.10;0.10;;;;;;;;;;4892067;29;20531;-85
2023/05/10 03:16:56;;;;;;;0.10;0.10;;;;;;;;;;4916635;29;20484;-85
2023/05/10 03:19:30;;;;;;;0.10;0.10;;;;;;;;;;4907848;29;20041;-87
2023/05/10 03:22:03;;;;;;;0.10;0.10;;;;;;;;;;4889821;29;20043;-85
2023/05/10 03:24:30;;;;;;;0.10;0.10;;;;;;;;;;4906384;29;20039;-85
2023/05/10 03:26:58;;;;;;;0.10;0.10;;;;;;;;;;4912018;29;20119;-85
2023/05/10 03:29:26;;;;;;;0.10;0.10;;;;;;;;;;4900413;29;20033;-85
2023/05/10 03:31:51;;;;;;;0.10;0.10;;;;;;;;;;4907692;29;20396;-85
2023/05/10 03:34:17;;;;;;;0.10;0.10;;;;;;;;;;4903102;29;20556;-86
2023/05/10 03:36:42;;;;;;;0.10;0.10;;;;;;;;;;4891518;29;20541;-85
2023/05/10 03:39:08;;;;;;;0.10;0.10;;;;;;;;;;4908587;29;20047;-86
2023/05/10 03:41:33;;;;;;;0.10;0.10;;;;;;;;;;4912151;29;20056;-85
2023/05/10 03:43:58;;;;;;;0.10;0.10;;;;;;;;;;4915071;29;20028;-85
2023/05/10 03:46:24;;;;;;;0.10;0.10;;;;;;;;;;4914874;29;20035;-86
2023/05/10 03:48:49;;;;;;;0.10;0.10;;;;;;;;;;4913857;29;20027;-85
2023/05/10 03:51:14;;;;;;;0.13;0.13;;;;;;;;;;4905062;29;20032;-85
2023/05/10 03:53:40;;;;;;;0.10;0.10;;;;;;;;;;4904107;29;20400;-85
2023/05/10 03:56:05;;;;;;;0.10;0.10;;;;;;;;;;4909173;29;20043;-85
2023/05/10 03:58:30;;;;;;;0.28;0.28;;;;;;;;;;4918168;29;20069;-84
2023/05/10 04:00:56;;;;;;;0.30;0.28;;;;;;;;;;4904493;29;20033;-85
2023/05/10 04:03:21;;;;;;;0.10;0.10;;;;;;;;;;4910278;29;20056;-85
2023/05/10 04:05:47;;;;;;;0.15;0.15;;;;;;;;;;4912140;29;20091;-84
2023/05/10 04:08:12;;;;;;;0.10;0.10;;;;;;;;;;4921976;29;20028;-86
2023/05/10 04:10:37;;;;;;;0.10;0.10;;;;;;;;;;4924733;29;20036;-84
2023/05/10 04:13:06;;;;;;;0.10;0.10;;;;;;;;;;4920178;29;20057;-86
2023/05/10 04:15:31;;;;;;;0.10;0.10;;;;;;;;;;4917945;29;20032;-86
2023/05/10 04:17:56;;;;;;;0.10;0.10;;;;;;;;;;4895769;29;20043;-85
2023/05/10 04:20:22;;;;;;;0.20;0.20;;;;;;;;;;4910080;29;20444;-85
2023/05/10 04:22:47;;;;;;;0.10;0.10;;;;;;;;;;4914780;29;20036;-84
2023/05/10 04:25:13;;;;;;;0.10;0.10;;;;;;;;;;4892524;29;20028;-85
2023/05/10 04:27:38;;;;;;;0.10;0.10;;;;;;;;;;4913461;29;20028;-86
2023/05/10 04:30:04;;;;;;;0.10;0.10;;;;;;;;;;4912317;29;20063;-85
2023/05/10 04:32:30;;;;;;;0.10;0.10;;;;;;;;;;4895410;29;20021;-85
2023/05/10 04:34:55;;;;;;;0.10;0.10;;;;;;;;;;4908919;29;20047;-85
2023/05/10 04:37:21;;;;;;;0.10;0.10;;;;;;;;;;4910664;29;20066;-85
2023/05/10 04:39:46;;;;;;;0.10;0.10;;;;;;;;;;4906439;29;20028;-85
2023/05/10 04:42:12;;;;;;;0.10;0.10;;;;;;;;;;4898538;29;20123;-85
2023/05/10 04:44:37;;;;;;;0.10;0.10;;;;;;;;;;4911932;29;20049;-85
2023/05/10 04:47:02;;;;;;;0.10;0.10;;;;;;;;;;4917895;29;20087;-85
2023/05/10 04:49:29;;;;;;;0.10;0.10;;;;;;;;;;4893410;29;20035;-86
2023/05/10 04:51:55;;;;;;;0.17;0.17;;;;;;;;;;4890156;29;20028;-85
2023/05/10 04:54:20;;;;;;;0.10;0.10;;;;;;;;;;4906230;29;20056;-86
2023/05/10 04:56:45;;;;;;;0.10;0.10;;;;;;;;;;4914260;29;20032;-85
2023/05/10 04:59:11;;;;;;;0.10;0.10;;;;;;;;;;4913355;29;20052;-85
2023/05/10 05:01:36;;;;;;;0.10;0.10;;;;;;;;;;4914657;29;20032;-84
2023/05/10 05:04:02;;;;;;;0.10;0.10;;;;;;;;;;4917770;29;20025;-84
2023/05/10 05:06:27;;;;;;;0.10;0.10;;;;;;;;;;4917580;29;20036;-84
2023/05/10 05:08:53;;;;;;;0.10;0.10;;;;;;;;;;4912281;29;20549;-84
2023/05/10 05:11:18;;;;;;;0.10;0.10;;;;;;;;;;4911831;29;20518;-84
2023/05/10 05:13:43;;;;;;;0.10;0.10;;;;;;;;;;4894309;29;20020;-84
2023/05/10 05:16:15;;;;;;;0.10;0.10;;;;;;;;;;4916244;29;20036;-84
2023/05/10 05:18:43;;;;;;;0.20;0.20;;;;;;;;;;4893224;29;20069;-85
2023/05/10 05:21:16;;;;;;;0.00;0.00;;;;;;;;;;4902958;29;20039;-85
2023/05/10 05:23:42;;;;;;;0.10;0.10;;;;;;;;;;4895232;29;20039;-82
2023/05/10 05:26:07;;;;;;;0.10;0.10;;;;;;;;;;4894250;29;20032;-87
2023/05/10 05:28:36;;;;;;;0.10;0.10;;;;;;;;;;4893782;29;20047;-85
2023/05/10 05:31:07;;;;;;;0.10;0.10;;;;;;;;;;4909570;29;20144;-86
2023/05/10 05:33:38;;;;;;;0.10;0.10;;;;;;;;;;4897618;29;20088;-86
2023/05/10 05:36:05;;;;;;;0.10;0.10;;;;;;;;;;4909940;29;20031;-86
2023/05/10 05:38:30;;;;;;;0.03;0.03;;;;;;;;;;4912373;29;20043;-85
2023/05/10 05:40:58;;;;;;;0.10;0.10;;;;;;;;;;4911508;29;20028;-86
2023/05/10 05:43:23;;;;;;;0.00;0.00;;;;;;;;;;4918274;29;20036;-86
2023/05/10 05:45:49;;;;;;;0.10;0.10;;;;;;;;;;4917427;29;20033;-85
2023/05/10 05:48:14;;;;;;;0.10;0.10;;;;;;;;;;4917263;29;20032;-86
2023/05/10 05:50:39;;;;;;;0.15;0.15;;;;;;;;;;4910380;29;20017;-85
2023/05/10 05:53:05;;;;;;;0.13;0.13;;;;;;;;;;4925408;29;20035;-84
2023/05/10 05:55:31;;;;;;;0.08;0.08;;;;;;;;;;4895189;29;20032;-85
2023/05/10 05:57:57;;;;;;;0.20;0.20;;;;;;;;;;4912249;29;20061;-85
2023/05/10 06:00:23;;;;;;;0.10;0.10;;;;;;;;;;4909418;29;20028;-84
2023/05/10 06:02:49;;;;;;;0.00;0.00;;;;;;;;;;4895197;29;20476;-85
2023/05/10 06:05:14;;;;;;;0.10;0.10;;;;;;;;;;4910780;29;20059;-85
2023/05/10 06:07:42;;;;;;;0.10;0.10;;;;;;;;;;4892804;29;20048;-85
2023/05/10 06:10:08;;;;;;;0.10;0.10;;;;;;;;;;4912360;29;20033;-86
2023/05/10 06:12:33;;;;;;;0.10;0.10;;;;;;;;;;4911906;29;20032;-86
2023/05/10 06:14:59;;;;;;;0.10;0.10;;;;;;;;;;4912934;29;20312;-84
2023/05/10 06:17:24;;;;;;;0.00;0.00;;;;;;;;;;4908821;29;20032;-85
2023/05/10 06:19:50;;;;;;;0.10;0.10;;;;;;;;;;4913213;29;20092;-84
2023/05/10 06:22:16;;;;;;;0.13;0.13;;;;;;;;;;4894766;29;20044;-84
2023/05/10 06:24:41;;;;;;;0.10;0.10;;;;;;;;;;4910610;29;20104;-84
2023/05/10 06:27:07;;;;;;;0.10;0.10;;;;;;;;;;4893752;29;20037;-85
2023/05/10 06:29:32;;;;;;;0.10;0.10;;;;;;;;;;4914727;29;20053;-84
2023/05/10 06:31:58;;;;;;;0.10;0.10;;;;;;;;;;4893738;29;20021;-79
2023/05/10 06:34:24;;;;;;;0.10;0.10;;;;;;;;;;4909279;29;20043;-83
2023/05/10 06:36:49;;;;;;;0.00;0.00;;;;;;;;;;4910956;29;20069;-83
2023/05/10 06:39:17;;;;;;;0.00;0.00;;;;;;;;;;4886415;29;20040;-82
2023/05/10 06:41:43;;;;;;;0.00;0.00;;;;;;;;;;4920166;29;20387;-82
2023/05/10 06:44:09;;;;;;;0.10;0.10;;;;;;;;;;4912787;29;20024;-80
2023/05/10 06:46:35;;;;;;;0.10;0.10;;;;;;;;;;4908540;29;20105;-80
2023/05/10 06:49:00;;;;;;;0.10;0.10;;;;;;;;;;4891673;29;20116;-81
2023/05/10 06:51:25;;;;;;;0.10;0.10;;;;;;;;;;4910449;29;20024;-81
2023/05/10 06:53:51;;;;;;;0.05;0.05;;;;;;;;;;4914129;29;20404;-81
2023/05/10 06:56:16;;;;;;;0.10;0.10;;;;;;;;;;4891240;29;20037;-81
2023/05/10 06:58:42;;;;;;;0.10;0.10;;;;;;;;;;4908892;29;20036;-81
2023/05/10 07:01:07;;;;;;;0.00;0.00;;;;;;;;;;4907192;29;20036;-80
2023/05/10 07:03:36;;;;;;;0.05;0.05;;;;;;;;;;4897912;29;20041;-80
2023/05/10 07:06:06;;;;;;;0.10;0.10;;;;;;;;;;4912991;29;20047;-83
2023/05/10 07:08:32;;;;;;;0.10;0.10;;;;;;;;;;4915376;29;20043;-81
2023/05/10 07:11:03;;;;;;;0.10;0.10;;;;;;;;;;4912628;29;20053;-80
2023/05/10 07:13:31;;;;;;;0.10;0.10;;;;;;;;;;4911722;29;20032;-81
2023/05/10 07:15:56;;;;;;;0.10;0.10;;;;;;;;;;4905705;29;20092;-81
2023/05/10 07:18:21;;;;;;;0.10;0.10;;;;;;;;;;4913490;29;20028;-82
2023/05/10 07:20:47;;;;;;;0.20;0.20;;;;;;;;;;4922299;29;20024;-81
2023/05/10 07:23:12;;;;;;;0.10;0.10;;;;;;;;;;4908521;29;20048;-81
2023/05/10 07:25:37;;;;;;;0.00;0.00;;;;;;;;;;4906348;29;20127;-81
2023/05/10 07:28:03;;;;;;;0.10;0.10;;;;;;;;;;4904556;29;20032;-81
2023/05/10 07:30:28;;;;;;;0.00;0.00;;;;;;;;;;4903834;29;20512;-81
2023/05/10 07:33:03;;;;;;;0.00;0.00;;;;;;;;;;4907506;29;20044;-80
2023/05/10 07:35:28;;;;;;;0.10;0.10;;;;;;;;;;4905299;29;20566;-81
2023/05/10 07:37:53;;;;;;;0.03;0.03;;;;;;;;;;4903378;29;20029;-82
2023/05/10 07:40:19;;;;;;;0.00;0.00;;;;;;;;;;4914783;29;20032;-80
2023/05/10 07:42:50;;;;;;;0.08;0.08;;;;;;;;;;4903501;29;20029;-80
2023/05/10 07:45:15;;;;;;;0.10;0.10;;;;;;;;;;4904304;29;20043;-81
2023/05/10 07:47:41;;;;;;;0.10;0.10;;;;;;;;;;4905977;29;20027;-81
2023/05/10 07:50:07;;;;;;;0.10;0.10;;;;;;;;;;4914106;29;20043;-81
2023/05/10 07:52:32;;;;;;;0.05;0.05;;;;;;;;;;4923589;29;20028;-81
2023/05/10 07:54:58;;;;;;;0.17;0.17;;;;;;;;;;4912263;29;20039;-81
2023/05/10 07:57:26;;;;;;;0.03;0.03;;;;;;;;;;4918340;29;20494;-81
2023/05/10 07:59:51;;;;;;;0.17;0.17;;;;;;;;;;4909297;29;20025;-81
2023/05/10 08:02:17;;;;;;;0.10;0.10;;;;;;;;;;4905823;29;20043;-84
2023/05/10 08:04:42;;;;;;;0.10;0.10;;;;;;;;;;4911370;29;20036;-81
2023/05/10 08:07:07;;;;;;;0.00;0.00;;;;;;;;;;4914272;29;20060;-81
2023/05/10 08:09:33;;;;;;;0.10;0.10;;;;;;;;;;4896678;29;20047;-81
2023/05/10 08:11:59;;;;;;;0.00;0.00;;;;;;;;;;4914320;29;20080;-80
2023/05/10 08:14:27;;;;;;;0.00;0.00;;;;;;;;;;4911155;29;20100;-81
2023/05/10 08:16:52;;;;;;;0.10;0.10;;;;;;;;;;4911341;29;20044;-81
2023/05/10 08:19:19;;;;;;;0.00;0.00;;;;;;;;;;4919337;29;20392;-81
2023/05/10 08:21:45;;;;;;;0.10;0.10;;;;;;;;;;4913031;29;20060;-81
2023/05/10 08:24:10;;;;;;;0.03;0.03;;;;;;;;;;4914818;29;20032;-81
2023/05/10 08:26:36;;;;;;;0.10;0.10;;;;;;;;;;4919130;29;20065;-81
2023/05/10 08:29:01;;;;;;;0.10;0.10;;;;;;;;;;4911465;29;20032;-80
2023/05/10 08:31:26;;;;;;;0.10;0.10;;;;;;;;;;4904216;29;20024;-81
2023/05/10 08:33:52;;;;;;;0.05;0.05;;;;;;;;;;4910094;29;20028;-81
2023/05/10 08:36:21;;;;;;;0.00;0.00;;;;;;;;;;4915693;29;20046;-80
2023/05/10 08:38:48;;;;;;;0.10;0.10;;;;;;;;;;4920660;29;20036;-80
2023/05/10 08:41:14;;;;;;;0.00;0.00;;;;;;;;;;4892003;29;20056;-81
2023/05/10 08:43:41;;;;;;;0.10;0.10;;;;;;;;;;4919079;29;20028;-79
2023/05/10 08:46:08;;;;;;;0.10;0.10;;;;;;;;;;4909210;29;20037;-79
2023/05/10 08:48:35;;;;;;;0.10;0.10;;;;;;;;;;4888705;29;20044;-79
2023/05/10 08:51:02;;;;;;;0.10;0.10;;;;;;;;;;4885065;29;20024;-81
2023/05/10 08:53:30;;;;;;;0.00;0.00;;;;;;;;;;4911779;29;20037;-80
2023/05/10 08:55:56;;;;;;;0.10;0.10;;;;;;;;;;4901231;29;20032;-81
2023/05/10 08:58:22;;;;;;;0.08;0.08;;;;;;;;;;4902737;29;20093;-81
2023/05/10 09:00:50;;;;;;;0.10;0.10;;;;;;;;;;4905682;29;20024;-80
2023/05/10 09:03:16;;;;;;;0.10;0.10;;;;;;;;;;4903633;29;20041;-81
2023/05/10 09:05:42;;;;;;;0.10;0.10;;;;;;;;;;4907284;29;20109;-80
2023/05/10 09:08:08;;;;;;;0.10;0.10;;;;;;;;;;4912122;29;20031;-80
2023/05/10 09:10:34;;;;;;;0.00;0.00;;;;;;;;;;4916320;29;20024;-80
2023/05/10 09:13:00;;;;;;;0.10;0.10;;;;;;;;;;4921139;29;20106;-81
2023/05/10 09:15:26;;;;;;;0.10;0.10;;;;;;;;;;4905328;29;20047;-80
2023/05/10 09:17:51;;;;;;;13.60;0.82;;;;;;;;;;4916568;29;20032;-80
2023/05/10 09:20:17;;;;;;;0.00;0.00;;;;;;;;;;4909061;29;20107;-80
2023/05/10 09:22:43;;;;;;;0.10;0.10;;;;;;;;;;4918898;29;20103;-80
2023/05/10 09:25:16;;;;;;;0.00;0.00;;;;;;;;;;4906239;29;20476;-80
2023/05/10 09:27:45;;;;;;;0.10;0.10;;;;;;;;;;4911230;29;20060;-80
2023/05/10 09:30:15;;;;;;;0.00;0.00;;;;;;;;;;4915067;29;20107;-82
2023/05/10 09:32:42;;;;;;;0.10;0.10;;;;;;;;;;4924303;29;20039;-82
2023/05/10 09:35:11;;;;;;;0.03;0.03;;;;;;;;;;4905198;29;20064;-82
2023/05/10 09:37:39;;;;;;;0.10;0.10;;;;;;;;;;4907650;29;20574;-82
2023/05/10 09:40:07;;;;;;;0.10;0.10;;;;;;;;;;4917643;29;20020;-82
2023/05/10 09:42:33;;;;;;;0.10;0.10;;;;;;;;;;4908702;29;20033;-82
2023/05/10 09:45:05;;;;;;;0.10;0.10;;;;;;;;;;4903722;29;20084;-82
2023/05/10 09:47:34;;;;;;;;;;;;;;;;;;4913906;29;20024;-80
2023/05/10 09:50:03;;;;;;;0.00;0.00;;;;;;;;;;4899168;29;19915;-84
2023/05/10 09:52:48;;;;;;;0.00;0.00;;;;;;;;;;4913243;29;20039;-84
2023/05/10 09:55:13;;;;;;;0.10;0.10;;;;;;;;;;4901950;29;20035;-82
2023/05/10 09:57:39;;;;;;;0.00;0.00;;;;;;;;;;4903356;29;20029;-82
2023/05/10 10:00:05;;;;;;;0.00;0.00;;;;;;;;;;4901952;29;20035;-82
2023/05/10 10:02:31;;;;;;;0.10;0.10;;;;;;;;;;4912557;29;20031;-81
2023/05/10 10:04:56;;;;;;;0.10;0.10;;;;;;;;;;4890360;29;20385;-82
2023/05/10 10:07:25;;;;;;;0.00;0.00;;;;;;;;;;4890338;29;20067;-83
2023/05/10 10:09:51;;;;;;;0.10;0.10;;;;;;;;;;4906550;29;20077;-80
2023/05/10 10:12:17;;;;;;;0.00;0.00;;;;;;;;;;4913098;29;20032;-81
2023/05/10 10:14:43;;;;;;;0.10;0.10;;;;;;;;;;4889879;29;20056;-80
2023/05/10 10:17:09;;;;;;;0.10;0.10;;;;;;;;;;4904046;29;20033;-81
2023/05/10 10:19:35;;;;;;;0.17;0.17;;;;;;;;;;4900362;29;20032;-82
2023/05/10 10:22:05;;;;;;;0.10;0.10;;;;;;;;;;4904434;29;20044;-82
2023/05/10 10:24:31;;;;;;;0.10;0.10;;;;;;;;;;4907097;29;20048;-82
2023/05/10 10:27:04;;;;;;;0.10;0.10;;;;;;;;;;4904963;29;20040;-81
2023/05/10 10:29:43;;;;;;;0.10;0.10;;;;;;;;;;4901540;29;20092;-82
2023/05/10 10:32:12;;;;;;;0.20;0.20;;;;;;;;;;4914373;29;20020;-82
2023/05/10 10:34:38;;;;;;;0.10;0.10;;;;;;;;;;4904238;29;20037;-81
2023/05/10 10:37:05;;;;;;;0.10;0.10;;;;;;;;;;4905167;29;20053;-81
2023/05/10 10:39:31;;;;;;;0.10;0.10;;;;;;;;;;4887110;29;20020;-81
2023/05/10 10:41:57;;;;;;;0.10;0.10;;;;;;;;;;4905866;29;20148;-82
2023/05/10 10:47:22;;;;;;;0.00;0.00;;;;;;;;;;4903332;29;20113;-81
2023/05/10 10:50:00;;;;;;;0.10;0.10;;;;;;;;;;4898133;29;20031;-81
2023/05/10 10:52:33;;;;;;;0.10;0.10;;;;;;;;;;4912435;29;20036;-82
2023/05/10 10:55:09;;;;;;;0.00;0.00;;;;;;;;;;4894456;29;20036;-82
2023/05/10 10:57:40;;;;;;;0.10;0.10;;;;;;;;;;4910440;29;20092;-82
2023/05/10 11:00:22;;;;;;;5.78;1.95;;;;;;;;;;4913945;29;20040;-81
2023/05/10 11:02:54;;;;;;;;;;;;;;;;;;4902692;29;20048;-81
2023/05/10 11:05:37;;;;;;;0.10;0.10;;;;;;;;;;4906566;29;19999;-83
2023/05/10 11:08:16;;;;;;;0.10;0.10;;;;;;;;;;4910342;29;20145;-82
2023/05/10 11:10:59;;;;;;;0.00;0.00;;;;;;;;;;4907800;29;20084;-84
2023/05/10 11:13:45;;;;;;;0.08;0.08;;;;;;;;;;4911832;29;20055;-83
2023/05/10 11:16:11;;;;;;;0.10;0.10;;;;;;;;;;4903180;29;20487;-81
2023/05/10 11:18:37;;;;;;;0.10;0.10;;;;;;;;;;4913880;29;20039;-84
2023/05/10 11:21:04;;;;;;;0.10;0.10;;;;;;;;;;4911536;29;20029;-84
2023/05/10 11:23:31;;;;;;;0.10;0.10;;;;;;;;;;4912970;29;20067;-84
2023/05/10 11:25:58;;;;;;;0.00;0.00;;;;;;;;;;4903452;29;20534;-84
2023/05/10 11:28:24;;;;;;;0.00;0.00;;;;;;;;;;4909282;29;20091;-83
2023/05/10 11:30:49;;;;;;;0.00;0.00;;;;;;;;;;4902243;29;20796;-81
2023/05/10 11:33:17;;;;;;;0.00;0.00;;;;;;;;;;4914686;29;20048;-83
2023/05/10 11:35:42;;;;;;;0.00;0.00;;;;;;;;;;4903362;29;20084;-83
2023/05/10 11:38:13;;;;;;;0.00;0.00;;;;;;;;;;4907198;29;20040;-83
2023/05/10 11:40:54;;;;;;;;;;;;;;;;;;;;;
2023/05/10 11:43:27;;;;;;;0.10;0.10;;;;;;;;;;4910519;29;20032;-81
2023/05/10 11:45:54;;;;;;;0.08;0.08;;;;;;;;;;4897934;29;20311;-78
2023/05/10 11:48:23;;;;;;;0.00;0.00;;;;;;;;;;4897478;29;20033;-83
2023/05/10 11:50:49;;;;;;;0.08;0.08;;;;;;;;;;4911336;29;20047;-82
2023/05/10 11:53:19;;;;;;;0.10;0.10;;;;;;;;;;4912395;29;20107;-83
2023/05/10 11:55:44;;;;;;;0.05;0.05;;;;;;;;;;4904681;29;20024;-83
2023/05/10 11:58:10;;;;;;;0.10;0.10;;;;;;;;;;4890395;29;20076;-82
2023/05/10 12:00:38;;;;;;;0.10;0.10;;;;;;;;;;4912936;29;20096;-80
2023/05/10 12:03:04;;;;;;;0.00;0.00;;;;;;;;;;4921097;29;20040;-81
2023/05/10 12:05:32;;;;;;;0.00;0.00;;;;;;;;;;4922920;29;20385;-83
2023/05/10 12:08:20;;;;;;;0.05;0.05;;;;;;;;;;4907595;29;20121;-82
2023/05/10 12:10:46;;;;;;;0.10;0.10;;;;;;;;;;4912510;29;20538;-81
2023/05/10 12:13:18;;;;;;;0.00;0.00;;;;;;;;;;4917710;29;20032;-84
2023/05/10 12:15:44;;;;;;;0.10;0.10;;;;;;;;;;4900858;29;20035;-83
2023/05/10 12:18:14;;;;;;;0.00;0.00;;;;;;;;;;4905844;29;20103;-84
2023/05/10 12:20:43;;;;;;;0.00;0.00;;;;;;;;;;4903838;29;20103;-84
2023/05/10 12:23:12;;;;;;;0.00;0.00;;;;;;;;;;4895672;29;20111;-84
2023/05/10 12:25:39;;;;;;;0.00;0.00;;;;;;;;;;4911686;29;20115;-84
2023/05/10 12:28:09;;;;;;;0.00;0.00;;;;;;;;;;4915964;29;20030;-84
2023/05/10 12:30:35;;;;;;;0.00;0.00;;;;;;;;;;4915100;29;20068;-84
2023/05/10 12:33:07;;;;;;;0.10;0.10;;;;;;;;;;4898609;29;20027;-83
2023/05/10 12:35:33;;;;;;;0.10;0.10;;;;;;;;;;4913052;29;20060;-85
2023/05/10 12:37:59;;;;;;;0.10;0.10;;;;;;;;;;4904893;29;20033;-85
2023/05/10 12:40:24;;;;;;;0.10;0.10;;;;;;;;;;4906282;29;20039;-84
2023/05/10 12:42:50;;;;;;;0.10;0.10;;;;;;;;;;4920000;29;20451;-83
2023/05/10 12:45:17;;;;;;;0.10;0.10;;;;;;;;;;4912187;29;20036;-81
2023/05/10 12:47:43;;;;;;;0.10;0.10;;;;;;;;;;4904497;29;20056;-83
2023/05/10 12:50:08;;;;;;;0.10;0.10;;;;;;;;;;4910624;29;20032;-84
2023/05/10 12:52:34;;;;;;;0.10;0.10;;;;;;;;;;4920532;29;20025;-84
2023/05/10 12:55:03;;;;;;;0.00;0.00;;;;;;;;;;4901853;29;20113;-84
2023/05/10 12:57:28;;;;;;;0.00;0.00;;;;;;;;;;4917521;29;20096;-85
2023/05/10 12:59:54;;;;;;;0.10;0.10;;;;;;;;;;4918910;29;20025;-83
2023/05/10 13:02:20;;;;;;;0.10;0.10;;;;;;;;;;4925105;29;20092;-83
2023/05/10 13:04:46;;;;;;;0.10;0.10;;;;;;;;;;4911222;29;20508;-81
2023/05/10 13:07:12;;;;;;;0.00;0.00;;;;;;;;;;4904656;29;20035;-81
2023/05/10 13:09:37;;;;;;;0.10;0.10;;;;;;;;;;4910125;29;20105;-81
2023/05/10 13:12:03;;;;;;;0.10;0.10;;;;;;;;;;4920562;29;20031;-80
2023/05/10 13:14:29;;;;;;;0.00;0.00;;;;;;;;;;4912991;29;20036;-80
2023/05/10 13:16:55;;;;;;;0.00;0.00;;;;;;;;;;4905594;29;20039;-81
2023/05/10 13:19:20;;;;;;;0.10;0.10;;;;;;;;;;4911068;29;20459;-80
2023/05/10 13:21:45;;;;;;;0.00;0.00;;;;;;;;;;4905312;29;20056;-81
2023/05/10 13:24:13;;;;;;;0.00;0.00;;;;;;;;;;4917337;29;20024;-79
2023/05/10 13:26:39;;;;;;;0.00;0.00;;;;;;;;;;4903835;29;20027;-79
2023/05/10 13:29:05;;;;;;;0.10;0.10;;;;;;;;;;4917201;29;20036;-79
2023/05/10 13:31:30;;;;;;;0.00;0.00;;;;;;;;;;4920064;29;20034;-82
2023/05/10 13:33:56;;;;;;;0.00;0.00;;;;;;;;;;4914879;29;20031;-80
2023/05/10 13:36:22;;;;;;;0.00;0.00;;;;;;;;;;4908509;29;20040;-82
2023/05/10 13:38:48;;;;;;;0.10;0.10;;;;;;;;;;4913297;29;20029;-80
2023/05/10 13:41:13;;;;;;;0.00;0.00;;;;;;;;;;4916977;29;20376;-81
2023/05/10 13:43:38;;;;;;;0.00;0.00;;;;;;;;;;4918258;29;20056;-80
2023/05/10 13:46:04;;;;;;;0.00;0.00;;;;;;;;;;4903850;29;20040;-80
2023/05/10 13:48:29;;;;;;;0.00;0.00;;;;;;;;;;4907937;29;20032;-82
2023/05/10 13:50:55;;;;;;;0.10;0.10;;;;;;;;;;4910720;29;20028;-82
2023/05/10 13:53:20;;;;;;;0.00;0.00;;;;;;;;;;4913293;29;20028;-80
2023/05/10 13:55:47;;;;;;;0.10;0.10;;;;;;;;;;4904404;29;20035;-81
2023/05/10 13:58:12;;;;;;;0.20;0.20;;;;;;;;;;4907962;29;20104;-82
2023/05/10 14:00:37;;;;;;;0.00;0.00;;;;;;;;;;4909705;29;20074;-81
2023/05/10 14:03:04;;;;;;;0.10;0.10;;;;;;;;;;4923281;29;20035;-81
2023/05/10 14:05:30;;;;;;;0.10;0.10;;;;;;;;;;4894576;29;20041;-81
2023/05/10 14:07:55;;;;;;;0.10;0.10;;;;;;;;;;4911198;29;20391;-80
2023/05/10 14:10:21;;;;;;;0.00;0.00;;;;;;;;;;4891350;29;20029;-81
2023/05/10 14:12:46;;;;;;;0.00;0.00;;;;;;;;;;4916682;29;20020;-81
2023/05/10 14:15:11;;;;;;;0.10;0.10;;;;;;;;;;4909701;29;20049;-80
2023/05/10 14:17:37;;;;;;;0.00;0.00;;;;;;;;;;4901733;29;20064;-81
2023/05/10 14:20:03;;;;;;;0.05;0.05;;;;;;;;;;4910393;29;20431;-82
2023/05/10 14:22:29;;;;;;;0.10;0.10;;;;;;;;;;4904849;29;20136;-80
2023/05/10 14:24:54;;;;;;;0.00;0.00;;;;;;;;;;4914313;29;20052;-81
2023/05/10 14:27:19;;;;;;;0.10;0.10;;;;;;;;;;4899091;29;20035;-81
2023/05/10 14:29:45;;;;;;;0.10;0.10;;;;;;;;;;4922940;29;20026;-81
2023/05/10 14:32:10;;;;;;;0.00;0.00;;;;;;;;;;4915698;29;20066;-80
2023/05/10 14:34:35;;;;;;;0.10;0.10;;;;;;;;;;4909700;29;20024;-81
2023/05/10 14:37:01;;;;;;;0.00;0.00;;;;;;;;;;4910411;29;20035;-81
2023/05/10 14:39:29;;;;;;;0.03;0.03;;;;;;;;;;4893125;29;20028;-78
2023/05/10 14:41:54;;;;;;;0.00;0.00;;;;;;;;;;4907423;29;20046;-80
2023/05/10 14:44:20;;;;;;;0.03;0.03;;;;;;;;;;4915577;29;20056;-80
2023/05/10 14:46:45;;;;;;;0.08;0.08;;;;;;;;;;4909611;29;20036;-79
2023/05/10 14:49:10;;;;;;;0.10;0.10;;;;;;;;;;4913389;29;20039;-80
2023/05/10 14:51:36;;;;;;;0.05;0.05;;;;;;;;;;4910543;29;20040;-80